Terminal Aerodrome Forecast
Issued by NWS Louisville, KY

Home | Current Version | Previous Version | Text Only | Print | Product List | Glossary On
Versions: 1 2 3 4 5 6 7 8 9 10 11 12 13 14 15 16 17 18 19
000
FTUS43 KLMK 261700
TAFLEX
TAF
KLEX 261725Z 2618/2718 23012G15KT P6SM SCT050 SCT150
     FM270300 23012KT P6SM VCTS SCT020 BKN035CB OVC120
      TEMPO 2704/2706 30010G25KT 4SM -TSRA BKN025CB
     FM270600 20011KT P6SM VCTS BKN040CB
     FM271300 23015G21KT P6SM VCTS BKN040CB OVC150=

USA.gov is the U.S. government's official web portal to all federal, state and local government web resources and services.